Charlevoix, MI

5:13 AM EDT on August 25, 2016 (GMT -0400)
1.5 W Ironton | | Change Station

Elev 750 ft 45.26 °N, 85.22 °W | Updated 9 seconds ago

Mostly Cloudy
Mostly Cloudy
69.5 °F
Feels Like 69.5 °F
N
4.0
Wind Variable Wind from WSW
Gusts 8.0 mph

Today
High -- | Low -- °F
--% Chance of Precip.
Yesterday
High -- | Low -- °F
Precip. -- in
Pressure 29.92 in
Visibility 10.0 miles
Clouds Scattered Clouds 4700 ft
Mostly Cloudy 5000 ft
Dew Point 68 °F
Humidity 94%
Rainfall 0.00 in
Snow Depth Not available.
6:54 AM 8:30 PM
Waning Gibbous, 47% visible
METAR KCVX 250854Z AUTO 22005KT 10SM SCT047 BKN050 21/21 A2992 RMK AO2 T02140206
Pressure 29.92 in
Visibility 10.0 miles
Clouds Scattered Clouds 4700 ft
Mostly Cloudy 5000 ft
Dew Point 68 °F
Humidity 94%
Rainfall 0.00 in
Snow Depth Not available.
6:54 AM 8:30 PM
Waning Gibbous, 47% visible
METAR KCVX 250854Z AUTO 22005KT 10SM SCT047 BKN050 21/21 A2992 RMK AO2 T02140206

10-Day Weather Forecast

Almanac

Astronomy

Aug. 25, 2016 Rise Set
Actual Time
Civil Twilight
Nautical Twilight
Astronomical Twilight
Moon
Length of Visible Light
Length of Day
Tomorrow will be .
, % of the Moon is Illuminated

Today's Extremes

State Highs State Lows

Community

WunderPhotos

Upload Photos

1,934,814 photos uploaded!

WunderBlog® & News

Nearby

Air Quality

  Air Quality AQ Index Pollutant
Not available.

Snow Depth

Station Depth Elevation

Earthquake Activity

City Distance Mag. Time & Date
Minimum magnitude displayed is 2.5.

Coastal Water Temperatures

Place Temperature

Stations

Nearby Weather Stations

Station Location Temp. Windchill Dew Point Humidity Wind Precip. Elev Updated Type
                   

Watches & Warnings

There are currently no watches in effect.